createdAt,value
2019-04-03T00:02:21.816Z,20.72
2019-04-03T00:04:52.185Z,21.33
2019-04-03T00:07:22.626Z,19.80
2019-04-03T00:09:52.981Z,20.50
2019-04-03T00:12:23.343Z,21.02
2019-04-03T00:14:56.796Z,21.73
2019-04-03T00:17:27.167Z,22.45
2019-04-03T00:19:57.616Z,22.87
2019-04-03T00:22:28.052Z,22.32
2019-04-03T00:24:58.407Z,21.87
2019-04-03T00:27:29.029Z,22.25
2019-04-03T00:29:59.440Z,22.75
2019-04-03T00:32:29.793Z,23.50
2019-04-03T00:35:00.165Z,24.10
2019-04-03T00:37:30.629Z,24.55
2019-04-03T00:40:00.979Z,24.63
2019-04-03T00:42:31.354Z,22.25
2019-04-03T00:45:01.792Z,22.93
2019-04-03T00:47:32.257Z,23.00
2019-04-03T00:50:02.756Z,23.85
2019-04-03T00:52:33.211Z,24.50
2019-04-03T00:55:03.978Z,25.90
2019-04-03T00:57:34.393Z,26.02
2019-04-03T01:00:07.773Z,27.52
2019-04-03T01:02:38.146Z,25.75
2019-04-03T01:05:08.498Z,26.42
2019-04-03T01:07:38.927Z,25.65
2019-04-03T01:10:09.384Z,27.93
2019-04-03T01:12:39.744Z,26.33
2019-04-03T01:15:10.564Z,25.55
2019-04-03T01:17:42.221Z,26.12
2019-04-03T01:20:12.690Z,25.72
2019-04-03T01:22:43.155Z,27.15
2019-04-03T01:25:13.616Z,26.50
2019-04-03T01:27:44.185Z,27.13
2019-04-03T01:30:14.699Z,28.25
2019-04-03T01:32:46.825Z,30.68
2019-04-03T01:35:17.413Z,28.73
2019-04-03T01:37:49.914Z,30.88
2019-04-03T01:40:21.035Z,29.77
2019-04-03T01:42:52.886Z,30.68
2019-04-03T01:45:25.256Z,32.00
2019-04-03T01:47:57.474Z,30.43
2019-04-03T01:50:29.235Z,31.93
2019-04-03T01:53:01.801Z,31.90
2019-04-03T01:55:34.113Z,33.45
2019-04-03T01:58:06.091Z,31.40
2019-04-03T02:00:37.651Z,31.40
2019-04-03T02:03:09.758Z,31.23
2019-04-03T02:05:40.242Z,28.90
2019-04-03T02:08:14.213Z,28.07
2019-04-03T02:10:44.309Z,31.73
2019-04-03T02:13:14.945Z,29.75
2019-04-03T02:15:45.360Z,27.93
2019-04-03T02:18:15.778Z,28.95
2019-04-03T02:20:46.187Z,31.50
2019-04-03T02:23:16.548Z,28.62
2019-04-03T02:25:47.054Z,31.12
2019-04-03T02:28:17.406Z,29.42
2019-04-03T02:30:47.848Z,29.70
2019-04-03T02:33:18.250Z,29.87
2019-04-03T02:35:48.870Z,31.45
2019-04-03T02:38:21.904Z,29.57
2019-04-03T02:40:51.605Z,31.65
2019-04-03T02:43:22.117Z,29.70
2019-04-03T02:45:55.780Z,29.77
2019-04-03T02:48:25.729Z,30.25
2019-04-03T02:50:56.464Z,32.30
2019-04-03T02:53:29.219Z,32.08
2019-04-03T02:55:58.886Z,32.50
2019-04-03T02:58:30.353Z,31.50
2019-04-03T03:01:05.342Z,31.97
2019-04-03T03:03:32.772Z,31.87
2019-04-03T03:06:03.195Z,31.87
2019-04-03T03:08:33.662Z,32.35
2019-04-03T03:11:04.580Z,30.65
2019-04-03T03:13:35.815Z,32.78
2019-04-03T03:16:06.595Z,29.97
2019-04-03T03:18:37.851Z,31.90
2019-04-03T03:21:12.051Z,31.65
2019-04-03T03:23:41.913Z,32.33
2019-04-03T03:26:12.511Z,32.13
2019-04-03T03:28:45.688Z,35.43
2019-04-03T03:31:15.618Z,34.05
2019-04-03T03:33:47.641Z,32.80
2019-04-03T03:36:21.698Z,33.67
2019-04-03T03:38:51.074Z,35.25
2019-04-03T03:41:23.788Z,35.60
2019-04-03T03:46:27.835Z,37.13
2019-04-03T03:48:57.225Z,37.00
2019-04-03T03:51:30.155Z,39.45
2019-04-03T03:53:59.960Z,38.40
2019-04-03T03:56:31.817Z,40.40
2019-04-03T03:59:03.922Z,41.48
2019-04-03T04:01:35.544Z,42.05
2019-04-03T04:04:05.960Z,41.40
2019-04-03T04:06:36.713Z,43.42
2019-04-03T04:09:08.408Z,44.03
2019-04-03T04:11:39.915Z,42.77
2019-04-03T04:14:10.332Z,44.50
2019-04-03T04:16:40.899Z,41.80
2019-04-03T04:19:11.467Z,42.48
2019-04-03T04:21:44.512Z,42.83
2019-04-03T04:24:18.251Z,42.27
2019-04-03T04:26:53.148Z,43.35
2019-04-03T04:29:24.716Z,43.92
2019-04-03T04:31:55.132Z,43.95
2019-04-03T04:34:25.542Z,42.95
2019-04-03T04:36:56.124Z,42.62
2019-04-03T04:39:28.439Z,45.15
2019-04-03T04:41:59.536Z,41.83
2019-04-03T04:44:29.908Z,44.25
2019-04-03T04:47:00.360Z,46.05
2019-04-03T04:49:30.943Z,47.75
2019-04-03T04:52:01.599Z,49.23
2019-04-03T04:54:31.965Z,46.92
2019-04-03T04:57:02.380Z,47.73
2019-04-03T04:59:35.639Z,46.00
2019-04-03T05:02:04.884Z,46.13
2019-04-03T05:04:35.259Z,44.67
2019-04-03T05:07:05.688Z,45.38
2019-04-03T05:09:36.066Z,45.73
2019-04-03T05:12:09.434Z,44.53
2019-04-03T05:14:38.491Z,45.90
2019-04-03T05:17:09.130Z,42.50
2019-04-03T05:19:39.488Z,44.88
2019-04-03T05:22:11.735Z,44.40
2019-04-03T05:24:42.386Z,42.65
2019-04-03T05:27:12.835Z,46.10
2019-04-03T05:29:43.202Z,44.58
2019-04-03T05:32:13.627Z,44.15
2019-04-03T05:34:44.682Z,41.55
2019-04-03T05:37:18.294Z,42.83
2019-04-03T05:39:48.604Z,43.45
2019-04-03T05:42:19.095Z,41.05
2019-04-03T05:44:49.503Z,42.83
2019-04-03T05:47:19.932Z,43.50
2019-04-03T05:49:51.696Z,39.80
2019-04-03T05:52:22.602Z,38.67
2019-04-03T05:54:53.031Z,39.58
2019-04-03T05:57:23.564Z,40.45
2019-04-03T06:00:00.823Z,43.60
2019-04-03T06:02:26.193Z,40.60
2019-04-03T06:04:56.720Z,42.55
2019-04-03T06:07:27.412Z,43.00
2019-04-03T06:09:59.041Z,43.08
2019-04-03T06:12:29.904Z,40.60
2019-04-03T06:15:00.277Z,41.15
2019-04-03T06:17:30.710Z,38.53
2019-04-03T06:20:01.076Z,42.83
2019-04-03T06:22:31.712Z,42.50
2019-04-03T06:25:02.352Z,40.63
2019-04-03T06:27:33.152Z,40.20
2019-04-03T06:30:05.155Z,41.58
2019-04-03T06:32:35.575Z,41.77
2019-04-03T06:35:07.362Z,41.02
2019-04-03T06:37:38.016Z,42.48
2019-04-03T06:40:09.947Z,41.68
2019-04-03T06:42:40.375Z,41.90
2019-04-03T06:45:11.321Z,41.60
2019-04-03T06:47:42.031Z,39.98
2019-04-03T06:50:13.535Z,39.67
2019-04-03T06:52:44.910Z,45.15
2019-04-03T06:55:15.263Z,40.63
2019-04-03T06:57:45.733Z,43.30
2019-04-03T07:00:16.230Z,42.75
2019-04-03T07:02:46.658Z,44.10
2019-04-03T07:05:17.039Z,40.15
2019-04-03T07:07:47.488Z,42.17
2019-04-03T07:10:25.644Z,42.23
2019-04-03T07:12:50.869Z,43.50
2019-04-03T07:15:23.966Z,45.23
2019-04-03T07:17:53.537Z,42.15
2019-04-03T07:20:23.996Z,35.43
2019-04-03T07:22:54.405Z,39.53
2019-04-03T07:25:24.794Z,38.53
2019-04-03T07:27:56.091Z,40.52
2019-04-03T07:30:26.772Z,42.98
2019-04-03T07:32:58.311Z,40.43
2019-04-03T07:35:28.971Z,36.38
2019-04-03T07:37:59.416Z,36.90
2019-04-03T07:40:29.771Z,37.90
2019-04-03T07:43:00.183Z,37.00
2019-04-03T07:45:32.997Z,33.50
2019-04-03T07:48:06.130Z,33.92
2019-04-03T07:50:36.983Z,30.65
2019-04-03T07:53:07.819Z,31.37
2019-04-03T07:55:38.426Z,31.40
2019-04-03T07:58:10.058Z,36.40
2019-04-03T08:00:40.425Z,26.65
2019-04-03T08:03:10.860Z,27.00
2019-04-03T08:05:41.472Z,29.00
2019-04-03T08:08:12.039Z,32.20
2019-04-03T08:10:45.933Z,28.00
2019-04-03T08:13:17.956Z,29.30
2019-04-03T08:15:48.333Z,32.38
2019-04-03T08:18:20.955Z,30.95
2019-04-03T08:20:51.063Z,32.48
2019-04-03T08:23:21.997Z,31.23
2019-04-03T08:25:54.307Z,28.05
2019-04-03T08:28:28.071Z,30.57
2019-04-03T08:30:56.835Z,30.70
2019-04-03T08:33:28.207Z,32.55
2019-04-03T08:35:58.995Z,31.17
2019-04-03T08:38:30.965Z,27.85
2019-04-03T08:41:03.332Z,31.17
2019-04-03T08:43:33.454Z,30.82
2019-04-03T08:46:04.106Z,31.17
2019-04-03T08:48:35.231Z,33.53
2019-04-03T08:51:06.028Z,31.97
2019-04-03T08:53:38.466Z,29.40
2019-04-03T08:56:08.988Z,26.42
2019-04-03T08:58:39.865Z,29.98
2019-04-03T09:01:11.041Z,26.97
2019-04-03T09:03:41.913Z,26.65
2019-04-03T09:06:12.619Z,29.82
2019-04-03T09:08:43.304Z,31.17
2019-04-03T09:11:14.070Z,30.57
2019-04-03T09:13:44.550Z,32.40
2019-04-03T09:16:15.656Z,30.10
2019-04-03T09:18:46.381Z,31.00
2019-04-03T09:21:18.334Z,28.60
2019-04-03T09:23:48.854Z,22.27
2019-04-03T09:26:19.889Z,27.70
2019-04-03T09:28:50.390Z,26.90
2019-04-03T09:31:20.861Z,28.73
2019-04-03T09:33:51.439Z,29.18
2019-04-03T09:36:24.298Z,28.32
2019-04-03T09:38:55.099Z,29.00
2019-04-03T09:41:25.651Z,28.23
2019-04-03T09:43:56.112Z,29.37
2019-04-03T09:46:26.739Z,29.63
2019-04-03T09:48:57.258Z,28.02
2019-04-03T09:51:27.948Z,27.73
2019-04-03T09:53:59.704Z,25.80
2019-04-03T09:56:30.118Z,25.17
2019-04-03T09:59:00.559Z,28.02
2019-04-03T10:01:30.981Z,28.07
2019-04-03T10:04:01.500Z,27.50
2019-04-03T10:06:32.267Z,28.50
2019-04-03T10:09:03.154Z,23.20
2019-04-03T10:11:34.659Z,25.80
2019-04-03T10:14:06.063Z,23.67
2019-04-03T10:16:36.494Z,22.97
2019-04-03T10:19:07.064Z,24.40
2019-04-03T10:21:37.741Z,23.20
2019-04-03T10:24:08.151Z,23.25
2019-04-03T10:26:40.585Z,22.15
2019-04-03T10:29:10.696Z,21.48
2019-04-03T10:31:41.108Z,21.12
2019-04-03T10:34:13.981Z,22.05
2019-04-03T10:36:43.797Z,23.30
2019-04-03T10:39:15.160Z,23.62
2019-04-03T10:41:45.499Z,21.93
2019-04-03T10:44:16.046Z,22.87
2019-04-03T10:46:49.371Z,21.65
2019-04-03T10:49:18.532Z,21.52
2019-04-03T10:51:48.907Z,20.72
2019-04-03T10:54:19.317Z,19.15
2019-04-03T10:56:49.882Z,19.98
2019-04-03T10:59:20.754Z,18.07
2019-04-03T11:01:51.175Z,19.92
2019-04-03T11:04:21.763Z,20.37
2019-04-03T11:06:52.592Z,19.00
2019-04-03T11:09:22.945Z,17.37
2019-04-03T11:11:53.457Z,17.32
2019-04-03T11:14:23.863Z,17.48
2019-04-03T11:16:54.275Z,18.42
2019-04-03T11:19:24.768Z,17.45
2019-04-03T11:21:56.799Z,17.05
2019-04-03T11:24:29.256Z,15.75
2019-04-03T11:27:00.270Z,17.12
2019-04-03T11:29:30.999Z,17.42
2019-04-03T11:32:01.396Z,17.27
2019-04-03T11:34:31.811Z,18.12
2019-04-03T11:37:02.838Z,17.30
2019-04-03T11:39:33.256Z,17.15
2019-04-03T11:42:03.776Z,17.10
2019-04-03T11:44:34.291Z,18.12
2019-04-03T11:47:04.824Z,13.93
2019-04-03T11:49:35.538Z,16.97
2019-04-03T11:52:06.191Z,15.83
2019-04-03T11:54:38.868Z,16.73
2019-04-03T11:57:08.807Z,14.40
2019-04-03T11:59:39.489Z,17.23
2019-04-03T12:02:10.561Z,15.60
2019-04-03T12:04:43.224Z,15.38
2019-04-03T12:07:13.066Z,13.03
2019-04-03T12:09:44.852Z,10.93
2019-04-03T12:12:15.328Z,10.63
2019-04-03T12:14:48.421Z,12.30
2019-04-03T12:17:17.857Z,12.15
2019-04-03T12:19:48.330Z,12.28
2019-04-03T12:22:19.896Z,14.10
2019-04-03T12:24:50.715Z,14.07
2019-04-03T12:27:22.365Z,13.18
2019-04-03T12:29:54.503Z,13.45
2019-04-03T12:32:36.363Z,13.15
2019-04-03T12:34:56.831Z,13.18
2019-04-03T12:37:27.210Z,12.82
2019-04-03T12:40:00.616Z,13.03
2019-04-03T12:42:31.138Z,13.22
2019-04-03T12:45:01.919Z,14.03
2019-04-03T12:47:32.790Z,12.63
2019-04-03T12:50:03.222Z,13.10
2019-04-03T12:52:33.595Z,12.75
2019-04-03T12:55:06.555Z,11.83
2019-04-03T12:57:39.193Z,13.40
2019-04-03T13:00:12.929Z,11.97
2019-04-03T13:02:44.124Z,12.30
2019-04-03T13:05:16.491Z,12.75
2019-04-03T13:07:47.577Z,12.73
2019-04-03T13:10:21.221Z,11.95
2019-04-03T13:15:21.922Z,11.15
2019-04-03T13:17:52.275Z,11.33
2019-04-03T13:20:22.706Z,9.80
2019-04-03T13:22:53.070Z,10.50
2019-04-03T13:25:23.794Z,8.10
2019-04-03T13:27:54.331Z,9.18
2019-04-03T13:30:26.742Z,9.00
2019-04-03T13:33:00.637Z,8.45
2019-04-03T13:35:29.761Z,7.53
2019-04-03T13:38:00.535Z,6.30
2019-04-03T13:40:31.643Z,5.58
2019-04-03T13:43:02.044Z,5.47
2019-04-03T13:45:32.655Z,5.90
2019-04-03T13:48:03.297Z,5.37
2019-04-03T13:50:33.776Z,6.90
2019-04-03T13:53:04.227Z,6.45
2019-04-03T13:55:36.622Z,7.10
2019-04-03T13:58:07.005Z,7.08
2019-04-03T14:00:37.717Z,8.08
2019-04-03T14:03:08.271Z,8.85
2019-04-03T14:05:42.439Z,8.78
2019-04-03T14:08:12.511Z,8.38
2019-04-03T14:10:44.005Z,7.08
2019-04-03T14:13:14.510Z,7.30
2019-04-03T14:15:44.965Z,6.20
2019-04-03T14:18:15.384Z,5.65
2019-04-03T14:20:45.849Z,5.20
2019-04-03T14:23:16.188Z,5.65
2019-04-03T14:25:46.616Z,6.20
2019-04-03T14:28:17.338Z,5.70
2019-04-03T14:30:48.980Z,5.80
2019-04-03T14:33:19.782Z,6.15
2019-04-03T14:35:54.467Z,5.30
2019-04-03T14:38:27.659Z,5.17
2019-04-03T14:40:57.129Z,4.47
2019-04-03T14:43:27.726Z,3.83
2019-04-03T14:45:58.428Z,3.62
2019-04-03T14:48:29.306Z,4.40
2019-04-03T14:51:00.035Z,5.33
2019-04-03T14:53:30.379Z,5.20
2019-04-03T14:56:01.383Z,5.20
2019-04-03T14:58:32.450Z,4.83
2019-04-03T15:01:03.176Z,3.87
2019-04-03T15:03:34.405Z,4.03
2019-04-03T15:06:05.731Z,4.07
2019-04-03T15:08:36.269Z,3.90
2019-04-03T15:11:06.718Z,4.40
2019-04-03T15:13:37.083Z,4.35
2019-04-03T15:16:07.697Z,4.92
2019-04-03T15:18:38.137Z,6.03
2019-04-03T15:21:08.900Z,6.30
2019-04-03T15:23:41.578Z,7.05
2019-04-03T15:26:12.655Z,6.80
2019-04-03T15:28:43.123Z,7.45
2019-04-03T15:31:14.480Z,6.78
2019-04-03T15:33:47.005Z,6.97
2019-04-03T15:36:19.363Z,7.17
2019-04-03T15:38:50.137Z,5.70
2019-04-03T15:41:20.653Z,5.22
2019-04-03T15:43:51.650Z,6.00
2019-04-03T15:46:23.083Z,8.10
2019-04-03T15:48:54.806Z,8.73
2019-04-03T15:51:25.523Z,10.75
2019-04-03T15:53:57.028Z,12.05
2019-04-03T15:56:27.969Z,13.25
2019-04-03T15:58:59.188Z,14.45
2019-04-03T16:01:45.732Z,13.53
2019-04-03T16:04:18.468Z,13.28
2019-04-03T16:06:48.956Z,14.93
2019-04-03T16:09:19.994Z,14.43
2019-04-03T16:11:50.752Z,14.40
2019-04-03T16:14:21.154Z,16.60
2019-04-03T16:17:04.869Z,17.75
2019-04-03T16:19:45.254Z,18.10
2019-04-03T16:22:24.047Z,17.17
2019-04-03T16:24:56.718Z,18.42
2019-04-03T16:27:29.138Z,16.65
2019-04-03T16:32:29.326Z,19.15
2019-04-03T16:35:00.309Z,18.65
2019-04-03T16:37:31.371Z,15.83
2019-04-03T16:40:04.189Z,15.13
2019-04-03T16:42:33.855Z,14.63
2019-04-03T16:45:08.259Z,14.33
2019-04-03T16:47:39.012Z,15.45
2019-04-03T16:50:11.288Z,14.05
2019-04-03T16:52:41.726Z,12.98
2019-04-03T16:55:13.856Z,14.95
2019-04-03T16:57:45.124Z,12.90
2019-04-03T17:00:16.247Z,13.60
2019-04-03T17:02:46.683Z,11.35
2019-04-03T17:05:17.323Z,10.93
2019-04-03T17:07:47.888Z,12.25
2019-04-03T17:10:18.754Z,10.90
2019-04-03T17:12:50.114Z,10.03
2019-04-03T17:15:20.639Z,11.68
2019-04-03T17:17:51.416Z,10.43
2019-04-03T17:20:22.979Z,9.80
2019-04-03T17:22:54.785Z,11.05
2019-04-03T17:25:27.771Z,10.60
2019-04-03T17:27:58.842Z,11.22
2019-04-03T17:30:29.878Z,11.95
2019-04-03T17:33:02.698Z,10.85
2019-04-03T17:35:32.873Z,11.80
2019-04-03T17:38:03.551Z,11.22
2019-04-03T17:40:36.315Z,11.83
2019-04-03T17:43:06.199Z,11.40
2019-04-03T17:45:36.550Z,17.45
2019-04-03T17:48:08.074Z,12.13
2019-04-03T17:50:38.428Z,12.15
2019-04-03T17:53:08.834Z,12.30
2019-04-03T17:55:41.239Z,12.10
2019-04-03T17:58:11.227Z,12.75
2019-04-03T18:00:41.617Z,12.40
2019-04-03T18:03:11.983Z,12.68
2019-04-03T18:05:42.411Z,12.80
2019-04-03T18:08:12.755Z,12.88
2019-04-03T18:10:43.269Z,12.93
2019-04-03T18:13:13.640Z,13.00
2019-04-03T18:15:44.070Z,12.43
2019-04-03T18:18:14.442Z,12.40
2019-04-03T18:20:45.296Z,13.25
2019-04-03T18:23:16.017Z,14.20
2019-04-03T18:25:47.544Z,14.33
2019-04-03T18:28:20.767Z,14.33
2019-04-03T18:30:51.007Z,15.38
2019-04-03T18:33:21.447Z,15.00
2019-04-03T18:35:51.879Z,14.58
2019-04-03T18:38:22.247Z,13.85
2019-04-03T18:40:52.660Z,14.75
2019-04-03T18:43:23.766Z,15.30
2019-04-03T18:45:55.861Z,13.62
2019-04-03T18:48:26.741Z,13.48
2019-04-03T18:51:12.401Z,13.53
2019-04-03T18:53:59.424Z,13.80
2019-04-03T18:56:32.179Z,14.30
2019-04-03T18:59:02.672Z,15.05
2019-04-03T19:01:33.194Z,16.37
2019-04-03T19:04:06.946Z,16.52
2019-04-03T19:06:36.008Z,17.27
2019-04-03T19:09:10.003Z,17.37
2019-04-03T19:11:40.993Z,18.45
2019-04-03T19:14:21.427Z,18.98
2019-04-03T19:16:49.707Z,18.82
2019-04-03T19:19:17.320Z,18.75
2019-04-03T19:21:47.780Z,18.17
2019-04-03T19:24:19.453Z,19.10
2019-04-03T19:26:49.892Z,19.42
2019-04-03T19:29:20.255Z,18.70
2019-04-03T19:31:50.695Z,18.75
2019-04-03T19:34:21.178Z,19.70
2019-04-03T19:36:51.776Z,18.77
2019-04-03T19:39:23.251Z,19.42
2019-04-03T19:41:53.678Z,18.57
2019-04-03T19:44:24.133Z,18.77
2019-04-03T19:46:54.574Z,18.50
2019-04-03T19:49:27.410Z,18.02
2019-04-03T19:51:56.964Z,18.98
2019-04-03T19:54:27.462Z,18.70
2019-04-03T19:57:00.678Z,18.87
2019-04-03T19:59:30.976Z,20.20
2019-04-03T20:02:02.901Z,18.80
2019-04-03T20:04:33.280Z,20.02
2019-04-03T20:07:03.699Z,19.35
2019-04-03T20:09:34.078Z,19.02
2019-04-03T20:12:06.846Z,18.85
2019-04-03T20:14:36.587Z,19.40
2019-04-03T20:17:07.004Z,18.60
2019-04-03T20:19:37.355Z,17.25
2019-04-03T20:22:07.782Z,18.15
2019-04-03T20:24:38.149Z,17.40
2019-04-03T20:27:08.578Z,16.40
2019-04-03T20:29:38.942Z,17.00
2019-04-03T20:32:09.533Z,17.17
2019-04-03T20:34:39.914Z,16.25
2019-04-03T20:37:11.816Z,16.35
2019-04-03T20:39:42.212Z,16.82
2019-04-03T20:42:12.878Z,16.45
2019-04-03T20:44:43.259Z,16.62
2019-04-03T20:47:13.657Z,16.42
2019-04-03T20:49:44.036Z,15.20
2019-04-03T20:52:14.450Z,15.75
2019-04-03T20:54:44.805Z,16.15
2019-04-03T20:57:15.286Z,16.25
2019-04-03T20:59:58.650Z,14.87
2019-04-03T21:02:17.758Z,15.85
2019-04-03T21:04:48.208Z,15.28
2019-04-03T21:07:18.771Z,16.27
2019-04-03T21:09:49.213Z,16.95
2019-04-03T21:12:19.628Z,15.43
2019-04-03T21:14:50.064Z,16.70
2019-04-03T21:17:20.491Z,15.80
2019-04-03T21:19:52.338Z,15.63
2019-04-03T21:22:22.944Z,15.80
2019-04-03T21:24:56.269Z,15.23
2019-04-03T21:27:25.407Z,15.40
2019-04-03T21:29:58.105Z,16.37
2019-04-03T21:32:28.902Z,16.17
2019-04-03T21:35:03.126Z,17.20
2019-04-03T21:37:31.907Z,17.70
2019-04-03T21:40:04.846Z,16.20
2019-04-03T21:42:34.454Z,17.35
2019-04-03T21:45:07.683Z,17.27
2019-04-03T21:47:40.929Z,17.75
2019-04-03T21:50:12.448Z,16.52
2019-04-03T21:52:42.865Z,17.12
2019-04-03T21:55:13.235Z,17.57
2019-04-03T21:57:43.677Z,17.65
2019-04-03T22:00:16.714Z,16.05
2019-04-03T22:02:49.877Z,16.90
2019-04-03T22:05:20.615Z,15.35
2019-04-03T22:07:51.051Z,17.45
2019-04-03T22:10:21.414Z,17.77
2019-04-03T22:12:51.854Z,17.82
2019-04-03T22:15:22.275Z,17.75
2019-04-03T22:17:53.042Z,16.77
2019-04-03T22:20:23.791Z,16.02
2019-04-03T22:22:54.203Z,17.60
2019-04-03T22:25:24.604Z,16.73
2019-04-03T22:27:55.081Z,16.50
2019-04-03T22:30:25.494Z,17.02
2019-04-03T22:32:56.416Z,14.65
2019-04-03T22:35:28.070Z,17.05
2019-04-03T22:38:00.079Z,16.35
2019-04-03T22:40:30.504Z,16.40
2019-04-03T22:43:02.738Z,16.67
2019-04-03T22:45:34.540Z,17.42
2019-04-03T22:48:04.948Z,16.55
2019-04-03T22:50:39.735Z,17.35
2019-04-03T22:53:11.254Z,17.80
2019-04-03T22:55:42.350Z,18.70
2019-04-03T22:58:13.570Z,17.73
2019-04-03T23:00:59.256Z,17.77
2019-04-03T23:03:29.872Z,17.07
2019-04-03T23:06:16.844Z,18.17
2019-04-03T23:08:49.608Z,16.62
2019-04-03T23:11:20.090Z,16.77
2019-04-03T23:13:50.643Z,17.77
2019-04-03T23:16:21.051Z,17.77
2019-04-03T23:18:51.407Z,16.50
2019-04-03T23:21:23.485Z,16.25
2019-04-03T23:23:53.830Z,17.37
2019-04-03T23:26:24.236Z,16.40
2019-04-03T23:28:54.598Z,16.42
2019-04-03T23:31:26.351Z,17.30
2019-04-03T23:33:56.798Z,16.05
2019-04-03T23:36:27.219Z,16.55
2019-04-03T23:38:57.596Z,16.12
2019-04-03T23:41:28.020Z,17.05
2019-04-03T23:43:58.395Z,18.07
2019-04-03T23:46:28.827Z,18.17
2019-04-03T23:48:59.181Z,19.07
2019-04-03T23:51:29.636Z,19.48
2019-04-03T23:54:02.633Z,17.70
2019-04-03T23:56:32.096Z,19.82
2019-04-03T23:59:02.541Z,19.45
